Terminal Aerodrome Forecast
Issued by NWS

Home | Current Version | Previous Version | Text Only | Print | Product List | Glossary On
Versions: 1 2 3 4 5 6 7 8 9 10 11 12 13 14 15 16 17 18 19
000
FTUS45 KTFX 282300
TAFGTF
TAF
KGTF 282337Z 2900/2924 35015KT 1SM -SN BR OVC015
      TEMPO 2900/2904 1/2SM -SN FZFG OVC008
     FM290600 01010KT 2SM -SN OVC015
     FM292200 35008KT 5SM -SN BR OVC028=

USA.gov is the U.S. government's official web portal to all federal, state and local government web resources and services.